createdAt,value
2022-11-28T00:01:38.889Z,41146.66
2022-11-28T00:04:07.795Z,41094.81
2022-11-28T00:06:54.504Z,41028.97
2022-11-28T00:09:22.967Z,41098.78
2022-11-28T00:11:54.924Z,41090.81
2022-11-28T00:14:24.757Z,41066.88
2022-11-28T00:16:52.281Z,41022.97
2022-11-28T00:19:19.877Z,40999.03
2022-11-28T00:21:48.202Z,40999.03
2022-11-28T00:24:15.749Z,40963.13
2022-11-28T00:26:43.116Z,40865.38
2022-11-28T00:29:15.307Z,40857.41
2022-11-28T00:31:43.882Z,40795.56
2022-11-28T00:34:15.728Z,40819.50
2022-11-28T00:36:46.243Z,40821.50
2022-11-28T00:39:14.901Z,40937.19
2022-11-28T00:41:43.722Z,40969.13
2022-11-28T00:44:11.583Z,40959.16
2022-11-28T00:46:39.196Z,40997.06
2022-11-28T00:49:11.392Z,41110.75
2022-11-28T00:51:38.929Z,41032.97
2022-11-28T00:54:09.125Z,41064.88
2022-11-28T00:56:39.746Z,41021.00
2022-11-28T00:59:07.597Z,40923.25
2022-11-28T01:01:38.491Z,40917.25
2022-11-28T01:04:08.765Z,40935.22
2022-11-28T01:06:40.069Z,40841.44
2022-11-28T01:09:12.607Z,40825.50
2022-11-28T01:11:41.154Z,40739.72
2022-11-28T01:14:10.386Z,40779.59
2022-11-28T01:16:40.238Z,40799.56
2022-11-28T01:19:08.392Z,40707.78
2022-11-28T01:21:38.246Z,40679.88
2022-11-28T01:24:05.818Z,40663.91
2022-11-28T01:26:33.613Z,40739.72
2022-11-28T01:29:03.956Z,40685.84
2022-11-28T01:31:32.760Z,40747.69
2022-11-28T01:34:00.314Z,40723.75
2022-11-28T01:36:28.186Z,40711.78
2022-11-28T01:38:55.720Z,40715.78
2022-11-28T01:41:27.898Z,40701.81
2022-11-28T01:44:09.052Z,40721.75
2022-11-28T01:46:37.745Z,40701.81
2022-11-28T01:49:38.305Z,40466.44
2022-11-28T01:52:11.564Z,40464.44
2022-11-28T01:54:42.428Z,40426.53
2022-11-28T01:57:22.070Z,40492.38
2022-11-28T01:59:57.651Z,40422.56
2022-11-28T02:02:45.751Z,40356.75
2022-11-28T02:05:13.683Z,40350.75
2022-11-28T02:07:42.158Z,40326.81
2022-11-28T02:10:13.311Z,40326.81
2022-11-28T02:13:07.910Z,40288.91
2022-11-28T02:16:13.715Z,40330.81
2022-11-28T02:18:59.669Z,40205.16
2022-11-28T02:21:32.740Z,40127.38
2022-11-28T02:24:23.935Z,40163.28
2022-11-28T02:27:33.031Z,40197.19
2022-11-28T02:30:21.418Z,40225.09
2022-11-28T02:33:15.375Z,40125.38
2022-11-28T02:35:54.511Z,40201.16
2022-11-28T02:38:54.860Z,40255.00
2022-11-28T02:41:46.508Z,40249.03
2022-11-28T02:44:22.248Z,40235.06
2022-11-28T02:47:19.231Z,40245.03
2022-11-28T02:49:58.943Z,40266.97
2022-11-28T02:52:36.147Z,40157.28
2022-11-28T02:55:05.447Z,40225.09
2022-11-28T02:57:47.197Z,40201.16
2022-11-28T03:00:35.807Z,40165.25
2022-11-28T03:03:28.790Z,40155.28
2022-11-28T03:05:59.238Z,40165.25
2022-11-28T03:08:35.779Z,40135.34
2022-11-28T03:11:12.195Z,40075.50
2022-11-28T03:14:03.147Z,40043.59
2022-11-28T03:16:47.026Z,40105.44
2022-11-28T03:19:34.696Z,40097.47
2022-11-28T03:22:59.270Z,40065.53
2022-11-28T03:25:59.109Z,40051.59
2022-11-28T03:28:43.548Z,40033.63
2022-11-28T03:31:17.200Z,40029.66
2022-11-28T03:33:52.985Z,39999.72
2022-11-28T03:36:30.069Z,39983.78
2022-11-28T03:39:11.150Z,39993.75
2022-11-28T03:41:47.043Z,39969.81
2022-11-28T03:44:21.645Z,39949.88
2022-11-28T03:46:50.875Z,39991.75
2022-11-28T03:49:25.178Z,40013.69
2022-11-28T03:52:07.293Z,39995.75
2022-11-28T03:54:53.966Z,39947.88
2022-11-28T03:57:37.464Z,40005.72
2022-11-28T04:00:07.498Z,40021.66
2022-11-28T04:02:49.653Z,39999.72
2022-11-28T04:05:20.054Z,39941.91
2022-11-28T04:07:52.511Z,39868.09
2022-11-28T04:10:38.102Z,39858.13
2022-11-28T04:13:25.470Z,39878.06
2022-11-28T04:15:58.864Z,39882.06
2022-11-28T04:18:35.391Z,39935.91
2022-11-28T04:21:41.492Z,39933.91
2022-11-28T04:24:12.972Z,40123.38
2022-11-28T04:26:48.021Z,40384.66
2022-11-28T04:29:18.573Z,40388.66
2022-11-28T04:31:51.690Z,40400.63
2022-11-28T04:34:20.420Z,40376.69
2022-11-28T04:36:49.959Z,40292.91
2022-11-28T04:39:25.411Z,40147.31
2022-11-28T04:42:08.732Z,40193.19
2022-11-28T04:45:02.903Z,40456.47
2022-11-28T04:47:31.432Z,40195.19
2022-11-28T04:50:01.595Z,40045.59
2022-11-28T04:52:59.390Z,40009.69
2022-11-28T04:55:36.081Z,40169.25
2022-11-28T04:58:08.262Z,40476.41
2022-11-28T05:00:37.954Z,40765.66
2022-11-28T05:03:06.750Z,41078.84
2022-11-28T05:05:46.667Z,41168.63
2022-11-28T05:08:14.714Z,41426.00
2022-11-28T05:10:42.681Z,41631.50
2022-11-28T05:13:10.384Z,41878.94
2022-11-28T05:15:40.423Z,42064.50
2022-11-28T05:18:07.933Z,42421.72
2022-11-28T05:20:38.158Z,42806.94
2022-11-28T05:23:06.921Z,43118.34
2022-11-28T05:25:38.910Z,43765.16
2022-11-28T05:28:06.751Z,44416.09
2022-11-28T05:30:34.521Z,44915.38
2022-11-28T05:33:03.009Z,45095.16
2022-11-28T05:35:30.812Z,44244.38
2022-11-28T05:37:58.428Z,44040.69
2022-11-28T05:40:25.717Z,43851.00
2022-11-28T05:42:53.242Z,43449.72
2022-11-28T05:45:20.737Z,43118.34
2022-11-28T05:47:48.236Z,42956.66
2022-11-28T05:50:15.804Z,43018.53
2022-11-28T05:52:43.350Z,43421.75
2022-11-28T05:55:10.897Z,43751.19
2022-11-28T05:57:40.881Z,43837.03
2022-11-28T06:00:08.896Z,44058.66
2022-11-28T06:02:39.257Z,44008.75
2022-11-28T06:05:27.347Z,44262.34
2022-11-28T06:07:57.834Z,43821.06
2022-11-28T06:10:26.514Z,43082.41
2022-11-28T06:12:53.818Z,42335.91
2022-11-28T06:15:22.626Z,42786.97
2022-11-28T06:17:49.905Z,42495.56
2022-11-28T06:20:17.483Z,42311.97
2022-11-28T06:22:49.191Z,42262.06
2022-11-28T06:25:18.814Z,41769.19
2022-11-28T06:27:49.316Z,40939.19
2022-11-28T06:30:17.105Z,39858.13
2022-11-28T06:32:44.567Z,39776.38
2022-11-28T06:35:12.933Z,39752.44
2022-11-28T06:37:40.658Z,39802.28
2022-11-28T06:40:08.675Z,39790.34
2022-11-28T06:42:37.243Z,39814.25
2022-11-28T06:45:06.065Z,39792.31
2022-11-28T06:47:35.733Z,39816.25
2022-11-28T06:50:03.179Z,39788.34
2022-11-28T06:52:31.764Z,39824.22
2022-11-28T06:54:59.195Z,39758.44
2022-11-28T06:57:26.933Z,39774.38
2022-11-28T06:59:54.452Z,39774.38
2022-11-28T07:02:25.093Z,39760.41
2022-11-28T07:04:52.883Z,39788.34
2022-11-28T07:07:21.712Z,39798.31
2022-11-28T07:09:52.773Z,39784.34
2022-11-28T07:12:20.933Z,39778.38
2022-11-28T07:14:53.942Z,39764.41
2022-11-28T07:17:23.606Z,39754.44
2022-11-28T07:19:55.168Z,39764.41
2022-11-28T07:22:27.704Z,39778.38
2022-11-28T07:24:55.232Z,39758.44
2022-11-28T07:27:22.596Z,39756.44
2022-11-28T07:29:50.477Z,39764.41
2022-11-28T07:32:17.956Z,39766.41
2022-11-28T07:34:49.877Z,39798.31
2022-11-28T07:37:22.688Z,39836.19
2022-11-28T07:39:49.999Z,39802.28
2022-11-28T07:42:17.657Z,39792.31
2022-11-28T07:44:56.256Z,39766.41
2022-11-28T07:47:24.821Z,39790.34
2022-11-28T07:49:52.487Z,39746.47
2022-11-28T07:52:20.059Z,39832.22
2022-11-28T07:54:51.785Z,39943.88
2022-11-28T07:57:19.226Z,40053.56
2022-11-28T07:59:46.677Z,40263.00
2022-11-28T08:02:16.348Z,40520.28
2022-11-28T08:04:49.606Z,40779.59
2022-11-28T08:07:19.858Z,41138.69
2022-11-28T08:09:47.715Z,41350.16
2022-11-28T08:12:15.052Z,41461.91
2022-11-28T08:14:45.352Z,41479.84
2022-11-28T08:17:12.938Z,41549.69
2022-11-28T08:19:40.487Z,42018.59
2022-11-28T08:22:10.697Z,44362.19
2022-11-28T08:24:38.994Z,46433.66
2022-11-28T08:27:08.815Z,49016.25
2022-11-28T08:29:36.844Z,50784.44
2022-11-28T08:32:06.661Z,51424.72
2022-11-28T08:34:34.256Z,53314.31
2022-11-28T08:37:01.966Z,55365.22
2022-11-28T08:39:29.547Z,53476.50
2022-11-28T08:41:57.767Z,55365.22
2022-11-28T08:44:30.372Z,55878.13
2022-11-28T08:46:59.063Z,57930.59
2022-11-28T08:49:28.588Z,56134.63
2022-11-28T08:51:56.184Z,54585.97
2022-11-28T08:54:23.564Z,53132.13
2022-11-28T08:56:51.061Z,52665.66
2022-11-28T08:59:18.712Z,52675.66
2022-11-28T09:01:46.073Z,52095.16
2022-11-28T09:04:13.598Z,51472.75
2022-11-28T09:06:41.356Z,51618.84
2022-11-28T09:09:12.012Z,51636.84
2022-11-28T09:11:39.610Z,52029.13
2022-11-28T09:14:07.850Z,52561.56
2022-11-28T09:16:35.587Z,51804.97
2022-11-28T09:19:03.149Z,51804.97
2022-11-28T09:21:30.844Z,51865.00
2022-11-28T09:23:58.266Z,51286.66
2022-11-28T09:26:26.138Z,50768.44
2022-11-28T09:28:54.661Z,51642.84
2022-11-28T09:31:22.762Z,50656.38
2022-11-28T09:33:50.732Z,50176.28
2022-11-28T09:36:21.025Z,49128.22
2022-11-28T09:38:48.881Z,48908.28
2022-11-28T09:41:31.979Z,48560.34
2022-11-28T09:44:10.474Z,47862.63
2022-11-28T09:46:41.623Z,47806.66
2022-11-28T09:49:25.730Z,43272.03
2022-11-28T09:52:01.794Z,41426.00
2022-11-28T09:54:44.963Z,40049.59
2022-11-28T09:57:21.509Z,39726.50
2022-11-28T09:59:51.949Z,39732.50
2022-11-28T10:02:29.526Z,39656.72
2022-11-28T10:05:03.064Z,39592.91
2022-11-28T10:07:57.428Z,39702.59
2022-11-28T10:10:55.448Z,39668.69
2022-11-28T10:14:07.095Z,39790.34
2022-11-28T10:16:53.422Z,39933.91
2022-11-28T10:19:53.917Z,40093.47
2022-11-28T10:22:48.869Z,40057.56
2022-11-28T10:25:24.619Z,39967.81
2022-11-28T10:27:52.843Z,40029.66
2022-11-28T10:30:25.993Z,39965.81
2022-11-28T10:33:04.805Z,39911.97
2022-11-28T10:35:41.259Z,39862.13
2022-11-28T10:38:13.795Z,39969.81
2022-11-28T10:41:06.933Z,39862.13
2022-11-28T10:43:53.064Z,39913.97
2022-11-28T10:46:32.027Z,40151.31
2022-11-28T10:49:24.164Z,40209.16
2022-11-28T10:51:51.898Z,40480.41
2022-11-28T10:54:56.952Z,40572.16
2022-11-28T10:57:33.639Z,40757.66
2022-11-28T11:00:13.890Z,41795.13
2022-11-28T11:02:56.797Z,45864.22
2022-11-28T11:05:32.869Z,47408.88
2022-11-28T11:08:11.608Z,47031.16
2022-11-28T11:10:52.265Z,46319.75
2022-11-28T11:13:26.562Z,45290.88
2022-11-28T11:16:04.455Z,43657.34
2022-11-28T11:18:36.411Z,43429.75
2022-11-28T11:21:19.994Z,44020.72
2022-11-28T11:23:49.036Z,44452.06
2022-11-28T11:26:27.642Z,43433.75
2022-11-28T11:28:56.454Z,42393.78
2022-11-28T11:31:32.110Z,41717.28
2022-11-28T11:34:12.562Z,42942.66
2022-11-28T11:36:40.156Z,44937.34
2022-11-28T11:39:10.889Z,46735.38
2022-11-28T11:41:40.674Z,45884.19
2022-11-28T11:44:14.380Z,44505.97
2022-11-28T11:46:53.518Z,42599.38
2022-11-28T11:49:34.672Z,42781.00
2022-11-28T11:52:23.489Z,41675.41
2022-11-28T11:54:57.424Z,40807.53
2022-11-28T11:57:34.850Z,40647.97
2022-11-28T12:00:13.567Z,40189.19
2022-11-28T12:02:49.392Z,39894.03
2022-11-28T12:05:20.484Z,39832.22
2022-11-28T12:07:49.965Z,39842.19
2022-11-28T12:10:22.079Z,39834.22
2022-11-28T12:12:50.933Z,39838.19
2022-11-28T12:15:46.097Z,39927.94
2022-11-28T12:18:45.813Z,40085.50
2022-11-28T12:21:14.570Z,40213.13
2022-11-28T12:24:07.027Z,40207.16
2022-11-28T12:26:50.167Z,40159.28
2022-11-28T12:29:27.236Z,40099.44
2022-11-28T12:32:03.761Z,39963.84
2022-11-28T12:35:03.210Z,39896.03
2022-11-28T12:38:10.196Z,39838.19
2022-11-28T12:40:37.622Z,39790.34
2022-11-28T12:43:33.006Z,39744.47
2022-11-28T12:46:23.919Z,39642.75
2022-11-28T12:49:18.204Z,39614.84
2022-11-28T12:51:58.406Z,39551.03
2022-11-28T12:55:04.881Z,39545.06
2022-11-28T12:57:53.714Z,39499.19
2022-11-28T13:00:24.637Z,39483.25
2022-11-28T13:03:13.012Z,39481.25
2022-11-28T13:05:50.991Z,39459.31
2022-11-28T13:08:44.744Z,39453.31
2022-11-28T13:11:26.574Z,39445.34
2022-11-28T13:14:20.355Z,39525.13
2022-11-28T13:16:53.366Z,39606.88
2022-11-28T13:19:36.083Z,39638.78
2022-11-28T13:22:23.780Z,39668.69
2022-11-28T13:25:23.733Z,39644.75
2022-11-28T13:28:17.561Z,39666.69
2022-11-28T13:31:05.320Z,39750.44
2022-11-28T13:33:58.556Z,39752.44
2022-11-28T13:39:48.281Z,39714.56
2022-11-28T13:43:07.654Z,39710.56
2022-11-28T13:45:46.009Z,39688.63
2022-11-28T13:51:32.087Z,39694.59
2022-11-28T13:54:18.987Z,39702.59
2022-11-28T13:56:48.744Z,39720.53
2022-11-28T13:59:21.273Z,39682.66
2022-11-28T14:01:58.811Z,39718.53
2022-11-28T14:04:28.081Z,39694.59
2022-11-28T14:07:20.137Z,39662.69
2022-11-28T14:10:09.607Z,39692.63
2022-11-28T14:13:28.050Z,39660.72
2022-11-28T14:16:24.950Z,39710.56
2022-11-28T14:19:04.736Z,39704.59
2022-11-28T14:22:05.095Z,39702.59
2022-11-28T14:25:11.726Z,39710.56
2022-11-28T14:27:47.187Z,39712.56
2022-11-28T14:30:37.747Z,39682.66
2022-11-28T14:33:16.922Z,39682.66
2022-11-28T14:35:50.912Z,39690.63
2022-11-28T14:38:35.646Z,39708.56
2022-11-28T14:41:15.360Z,39718.53
2022-11-28T14:43:47.611Z,39696.59
2022-11-28T14:46:22.992Z,39690.63
2022-11-28T14:48:59.862Z,39712.56
2022-11-28T14:51:46.144Z,39710.56
2022-11-28T14:54:27.299Z,39754.44
2022-11-28T14:56:59.839Z,39666.69
2022-11-28T14:59:34.132Z,39608.88
2022-11-28T15:02:01.699Z,39624.81
2022-11-28T15:05:03.186Z,39686.63
2022-11-28T15:07:41.486Z,39766.41
2022-11-28T15:10:20.539Z,39720.53
2022-11-28T15:12:48.427Z,39724.53
2022-11-28T15:15:17.834Z,39666.69
2022-11-28T15:17:51.355Z,39730.50
2022-11-28T15:20:48.481Z,39836.19
2022-11-28T15:23:28.874Z,39890.03
2022-11-28T15:25:58.045Z,39878.06
2022-11-28T15:28:28.540Z,39832.22
2022-11-28T15:30:59.338Z,39898.03
2022-11-28T15:33:29.948Z,40007.72
2022-11-28T15:36:04.385Z,39985.78
2022-11-28T15:38:32.370Z,39993.75
2022-11-28T15:41:02.325Z,40005.72
2022-11-28T15:43:31.742Z,39985.78
2022-11-28T15:46:02.822Z,39921.94
2022-11-28T15:48:59.013Z,39864.13
2022-11-28T15:51:31.164Z,39870.09
2022-11-28T15:54:00.113Z,39790.34
2022-11-28T15:56:28.257Z,39788.34
2022-11-28T15:58:56.699Z,39752.44
2022-11-28T16:01:28.369Z,39778.38
2022-11-28T16:04:05.742Z,39782.34
2022-11-28T16:06:40.040Z,39864.13
2022-11-28T16:09:17.661Z,39915.97
2022-11-28T16:11:52.102Z,39937.91
2022-11-28T16:14:33.352Z,39943.88
2022-11-28T16:17:12.424Z,40057.56
2022-11-28T16:19:44.242Z,40231.09
2022-11-28T16:22:22.888Z,40197.19
2022-11-28T16:25:01.201Z,40468.44
2022-11-28T16:27:31.905Z,41661.44
2022-11-28T16:30:00.807Z,42661.22
2022-11-28T16:32:40.026Z,42984.59
2022-11-28T16:35:12.493Z,43569.50
2022-11-28T16:37:42.235Z,43677.31
2022-11-28T16:40:23.233Z,43603.44
2022-11-28T16:42:57.387Z,43365.88
2022-11-28T16:45:33.302Z,42457.66
2022-11-28T16:48:19.350Z,41954.75
2022-11-28T16:51:02.169Z,41665.41
2022-11-28T16:53:41.654Z,41623.50
2022-11-28T16:56:27.178Z,41388.06
2022-11-28T16:59:16.834Z,41437.97
2022-11-28T17:01:47.115Z,41467.88
2022-11-28T17:04:27.492Z,41487.84
2022-11-28T17:07:05.692Z,41535.72
2022-11-28T17:09:34.245Z,41615.53
2022-11-28T17:12:07.489Z,41627.50
2022-11-28T17:14:37.555Z,41805.09
2022-11-28T17:17:15.748Z,41769.19
2022-11-28T17:19:44.333Z,42060.50
2022-11-28T17:22:17.961Z,42615.31
2022-11-28T17:24:46.660Z,43333.94
2022-11-28T17:27:15.408Z,43551.53
2022-11-28T17:29:43.423Z,44018.72
2022-11-28T17:32:13.535Z,46613.47
2022-11-28T17:34:42.525Z,50088.25
2022-11-28T17:37:10.758Z,51344.69
2022-11-28T17:39:38.604Z,52429.44
2022-11-28T17:42:06.678Z,52631.63
2022-11-28T17:44:36.366Z,53012.00
2022-11-28T17:47:05.163Z,54339.59
2022-11-28T17:49:33.771Z,52365.38
2022-11-28T17:52:01.290Z,52123.19
2022-11-28T17:54:29.789Z,52267.31
2022-11-28T17:56:58.101Z,53264.25
2022-11-28T17:59:27.995Z,52339.38
2022-11-28T18:01:56.003Z,51764.94
2022-11-28T18:04:25.043Z,51084.56
2022-11-28T18:06:52.780Z,51816.97
2022-11-28T18:09:20.595Z,51738.91
2022-11-28T18:11:48.249Z,53480.50
2022-11-28T18:14:19.513Z,53256.25
2022-11-28T18:16:47.850Z,52473.47
2022-11-28T18:19:15.694Z,52179.22
2022-11-28T18:21:43.251Z,52989.97
2022-11-28T18:24:11.077Z,53210.19
2022-11-28T18:26:39.047Z,53058.03
2022-11-28T18:29:11.121Z,52333.34
2022-11-28T18:31:38.722Z,52369.38
2022-11-28T18:34:08.117Z,52189.25
2022-11-28T18:36:37.753Z,51438.75
2022-11-28T18:39:09.431Z,51434.75
2022-11-28T18:41:37.177Z,51048.53
2022-11-28T18:44:05.649Z,50992.53
2022-11-28T18:46:35.027Z,50318.28
2022-11-28T18:49:03.484Z,50260.28
2022-11-28T18:51:35.140Z,50282.28
2022-11-28T18:54:06.928Z,50480.34
2022-11-28T18:56:35.818Z,50676.41
2022-11-28T18:59:04.367Z,50648.38
2022-11-28T19:01:34.255Z,50168.25
2022-11-28T19:04:08.119Z,51096.56
2022-11-28T19:06:43.381Z,51841.00
2022-11-28T19:09:15.226Z,51989.09
2022-11-28T19:11:43.754Z,52089.16
2022-11-28T19:14:21.830Z,51776.94
2022-11-28T19:16:49.683Z,52437.44
2022-11-28T19:19:18.425Z,52219.28
2022-11-28T19:21:48.681Z,52137.19
2022-11-28T19:24:16.467Z,52429.44
2022-11-28T19:26:44.137Z,53286.28
2022-11-28T19:29:11.842Z,53314.31
2022-11-28T19:31:40.763Z,53556.59
2022-11-28T19:34:17.446Z,53570.59
2022-11-28T19:36:51.135Z,54063.22
2022-11-28T19:39:24.325Z,53314.31
2022-11-28T19:41:54.017Z,53826.91
2022-11-28T19:44:30.750Z,54339.59
2022-11-28T19:46:58.766Z,54595.97
2022-11-28T19:49:26.437Z,53504.53
2022-11-28T19:51:54.537Z,52571.56
2022-11-28T19:54:22.286Z,54083.25
2022-11-28T19:56:50.895Z,54083.25
2022-11-28T19:59:19.400Z,53484.50
2022-11-28T20:01:49.892Z,53488.50
2022-11-28T20:04:20.243Z,53826.91
2022-11-28T20:06:47.986Z,53826.91
2022-11-28T20:09:15.676Z,54595.97
2022-11-28T20:11:45.108Z,54339.59
2022-11-28T20:14:16.396Z,53570.59
2022-11-28T20:16:44.650Z,53232.22
2022-11-28T20:19:15.133Z,52653.63
2022-11-28T20:21:46.329Z,53538.56
2022-11-28T20:24:14.786Z,53826.91
2022-11-28T20:26:43.604Z,53176.16
2022-11-28T20:29:14.383Z,52597.59
2022-11-28T20:31:46.334Z,52761.75
2022-11-28T20:34:17.682Z,53146.13
2022-11-28T20:36:50.200Z,52929.91
2022-11-28T20:39:17.662Z,52771.75
2022-11-28T20:41:45.066Z,52989.97
2022-11-28T20:44:12.682Z,52723.69
2022-11-28T20:46:40.183Z,52775.75
2022-11-28T20:49:07.812Z,53202.19
2022-11-28T20:51:35.848Z,52401.41
2022-11-28T20:54:05.869Z,52053.13
2022-11-28T20:56:58.326Z,51592.81
2022-11-28T20:59:29.082Z,51600.84
2022-11-28T21:01:56.587Z,52013.09
2022-11-28T21:04:24.008Z,51828.97
2022-11-28T21:06:51.853Z,51602.84
2022-11-28T21:09:20.568Z,51616.84
2022-11-28T21:11:58.509Z,51050.53
2022-11-28T21:14:28.329Z,50708.41
2022-11-28T21:16:57.054Z,50684.41
2022-11-28T21:19:24.932Z,50616.38
2022-11-28T21:21:52.606Z,51420.72
2022-11-28T21:24:20.001Z,51764.94
2022-11-28T21:26:53.969Z,52217.25
2022-11-28T21:29:23.615Z,53032.00
2022-11-28T21:31:51.294Z,52745.72
2022-11-28T21:34:19.513Z,52049.13
2022-11-28T21:36:47.292Z,51776.94
2022-11-28T21:39:20.156Z,51676.88
2022-11-28T21:41:48.119Z,51985.09
2022-11-28T21:44:15.767Z,52493.50
2022-11-28T21:46:43.545Z,52653.63
2022-11-28T21:49:12.483Z,52247.28
2022-11-28T21:51:40.852Z,52295.31
2022-11-28T21:54:11.104Z,52413.44
2022-11-28T21:56:38.665Z,52687.66
2022-11-28T21:59:06.529Z,52487.50
2022-11-28T22:01:34.139Z,52093.16
2022-11-28T22:04:03.033Z,52241.28
2022-11-28T22:06:32.651Z,51776.94
2022-11-28T22:09:08.305Z,51806.97
2022-11-28T22:11:38.129Z,51929.06
2022-11-28T22:14:05.755Z,51929.06
2022-11-28T22:16:33.366Z,51937.06
2022-11-28T22:19:01.425Z,51500.78
2022-11-28T22:21:52.313Z,51937.06
2022-11-28T22:24:16.885Z,51897.03
2022-11-28T22:26:44.707Z,52061.16
2022-11-28T22:29:14.339Z,51897.03
2022-11-28T22:31:42.120Z,52377.41
2022-11-28T22:34:10.405Z,52651.63
2022-11-28T22:36:38.219Z,52645.63
2022-11-28T22:39:06.298Z,52225.28
2022-11-28T22:41:34.038Z,52439.44
2022-11-28T22:44:02.866Z,51969.06
2022-11-28T22:46:32.001Z,51879.00
2022-11-28T22:49:01.212Z,51746.94
2022-11-28T22:51:29.899Z,52173.22
2022-11-28T22:53:59.951Z,51981.09
2022-11-28T22:56:30.367Z,52007.09
2022-11-28T22:59:00.206Z,52045.13
2022-11-28T23:01:30.586Z,51768.94
2022-11-28T23:04:01.577Z,51967.06
2022-11-28T23:06:33.501Z,52097.16
2022-11-28T23:09:04.173Z,52405.41
2022-11-28T23:16:22.573Z,53278.28
2022-11-28T23:18:53.636Z,53814.91
2022-11-28T23:21:23.604Z,53570.59
2022-11-28T23:23:52.350Z,53314.31
2022-11-28T23:26:22.452Z,53314.31
2022-11-28T23:28:50.999Z,53256.25
2022-11-28T23:31:24.642Z,53236.22
2022-11-28T23:33:53.315Z,53182.16
2022-11-28T23:36:27.371Z,53058.03
2022-11-28T23:39:00.376Z,53182.16
2022-11-28T23:41:29.351Z,53314.31
2022-11-28T23:43:57.558Z,53570.59
2022-11-28T23:46:26.111Z,53570.59
2022-11-28T23:48:53.990Z,53570.59
2022-11-28T23:51:23.414Z,53750.81
2022-11-28T23:53:51.398Z,53826.91
2022-11-28T23:56:21.586Z,54083.25
2022-11-28T23:58:52.411Z,54595.97
